East Dennis, MA (02641)

3:03 PM EDT on July 29, 2016 (GMT -0400)
golf course | | Change Station

Elev 79 ft 41.73 °N, 70.16 °W | Updated 9 minutes ago

Mostly Cloudy
Mostly Cloudy
79.5 °F
Feels Like 83 °F
N
3.2
Wind Variable Wind from NNE

Today
High -- | Low -- °F
--% Chance of Precip.
Yesterday
High -- | Low -- °F
Precip. -- in
Pressure 29.82 in
Visibility 10.0 miles
Clouds Few 1100 ft
Few 4800 ft
Mostly Cloudy 9000 ft
Heat Index 83 °F
Dew Point 71 °F
Humidity 76%
Rainfall 0.20 in
Snow Depth Not available.
5:32 AM 8:01 PM
Waning Crescent, 20% visible
METAR KHYA 291856Z AUTO 35008KT 10SM FEW011 FEW048 BKN090 24/21 A2981 RMK AO2 RAE22 SLP096 P0000 T02440206
Pressure 29.82 in
Visibility 10.0 miles
Clouds Few 1100 ft
Few 4800 ft
Mostly Cloudy 9000 ft
Heat Index 83 °F
Dew Point 71 °F
Humidity 76%
Rainfall 0.20 in
Snow Depth Not available.
5:32 AM 8:01 PM
Waning Crescent, 20% visible
METAR KHYA 291856Z AUTO 35008KT 10SM FEW011 FEW048 BKN090 24/21 A2981 RMK AO2 RAE22 SLP096 P0000 T02440206

10-Day Weather Forecast

Almanac

Astronomy

Jul. 29, 2016 Rise Set
Actual Time
Civil Twilight
Nautical Twilight
Astronomical Twilight
Moon
Length of Visible Light
Length of Day
Tomorrow will be .
, % of the Moon is Illuminated

Today's Extremes

State Highs State Lows

Community

WunderPhotos

Upload Photos

1,928,395 photos uploaded!

WunderBlog® & News

Nearby

Air Quality

  Air Quality AQ Index Pollutant
Not available.

Snow Depth

Station Depth Elevation

Earthquake Activity

City Distance Mag. Time & Date
Minimum magnitude displayed is 2.5.

Coastal Water Temperatures

Place Temperature

Stations

Nearby Weather Stations

Station Location Temp. Windchill Dew Point Humidity Wind Precip. Elev Updated Type
                   

Watches & Warnings

There are currently no watches in effect.